sensor_id;sensor_type;location;lat;lon;timestamp;P1;durP1;ratioP1;P2;durP2;ratioP2
6007;SDS011;3032;49.484;11.112;2023-04-03T00:01:03;4.10;;;2.03;;
6007;SDS011;3032;49.484;11.112;2023-04-03T00:03:30;2.42;;;2.22;;
6007;SDS011;3032;49.484;11.112;2023-04-03T00:05:55;2.70;;;2.07;;
6007;SDS011;3032;49.484;11.112;2023-04-03T00:08:21;2.40;;;2.20;;
6007;SDS011;3032;49.484;11.112;2023-04-03T00:10:47;2.10;;;1.90;;
6007;SDS011;3032;49.484;11.112;2023-04-03T00:13:13;2.38;;;2.28;;
6007;SDS011;3032;49.484;11.112;2023-04-03T00:15:40;2.92;;;1.80;;
6007;SDS011;3032;49.484;11.112;2023-04-03T00:18:06;2.00;;;1.90;;
6007;SDS011;3032;49.484;11.112;2023-04-03T00:20:32;1.83;;;1.73;;
6007;SDS011;3032;49.484;11.112;2023-04-03T00:22:58;2.40;;;1.73;;
6007;SDS011;3032;49.484;11.112;2023-04-03T00:25:24;2.15;;;1.85;;
6007;SDS011;3032;49.484;11.112;2023-04-03T00:27:50;5.70;;;1.97;;
6007;SDS011;3032;49.484;11.112;2023-04-03T00:30:18;8.70;;;2.03;;
6007;SDS011;3032;49.484;11.112;2023-04-03T00:32:45;2.00;;;1.90;;
6007;SDS011;3032;49.484;11.112;2023-04-03T00:35:12;2.30;;;2.10;;
6007;SDS011;3032;49.484;11.112;2023-04-03T00:37:40;1.85;;;1.75;;
6007;SDS011;3032;49.484;11.112;2023-04-03T00:40:07;2.38;;;2.20;;
6007;SDS011;3032;49.484;11.112;2023-04-03T00:42:33;1.85;;;1.75;;
6007;SDS011;3032;49.484;11.112;2023-04-03T00:47:25;1.90;;;1.80;;
6007;SDS011;3032;49.484;11.112;2023-04-03T00:49:52;2.50;;;2.30;;
6007;SDS011;3032;49.484;11.112;2023-04-03T00:52:19;2.30;;;1.95;;
6007;SDS011;3032;49.484;11.112;2023-04-03T00:54:48;2.50;;;2.40;;
6007;SDS011;3032;49.484;11.112;2023-04-03T00:57:16;3.60;;;2.67;;
6007;SDS011;3032;49.484;11.112;2023-04-03T00:59:43;3.17;;;2.90;;
6007;SDS011;3032;49.484;11.112;2023-04-03T01:02:11;2.85;;;2.65;;
6007;SDS011;3032;49.484;11.112;2023-04-03T01:04:38;2.60;;;2.40;;
6007;SDS011;3032;49.484;11.112;2023-04-03T01:07:07;3.90;;;3.30;;
6007;SDS011;3032;49.484;11.112;2023-04-03T01:09:36;3.38;;;2.42;;
6007;SDS011;3032;49.484;11.112;2023-04-03T01:12:20;4.50;;;3.10;;
6007;SDS011;3032;49.484;11.112;2023-04-03T01:14:51;5.22;;;3.05;;
6007;SDS011;3032;49.484;11.112;2023-04-03T01:17:24;2.58;;;2.38;;
6007;SDS011;3032;49.484;11.112;2023-04-03T01:20:05;2.67;;;2.47;;
6007;SDS011;3032;49.484;11.112;2023-04-03T01:25:25;2.67;;;2.47;;
6007;SDS011;3032;49.484;11.112;2023-04-03T01:27:51;2.30;;;2.20;;
6007;SDS011;3032;49.484;11.112;2023-04-03T01:30:17;2.50;;;2.30;;
6007;SDS011;3032;49.484;11.112;2023-04-03T01:32:44;2.63;;;2.42;;
6007;SDS011;3032;49.484;11.112;2023-04-03T01:35:10;2.43;;;2.23;;
6007;SDS011;3032;49.484;11.112;2023-04-03T01:37:36;3.40;;;2.00;;
6007;SDS011;3032;49.484;11.112;2023-04-03T01:40:02;2.20;;;2.10;;
6007;SDS011;3032;49.484;11.112;2023-04-03T01:42:28;2.20;;;2.03;;
6007;SDS011;3032;49.484;11.112;2023-04-03T01:44:54;2.30;;;2.17;;
6007;SDS011;3032;49.484;11.112;2023-04-03T01:47:20;1.77;;;1.70;;
6007;SDS011;3032;49.484;11.112;2023-04-03T01:49:46;2.15;;;2.05;;
6007;SDS011;3032;49.484;11.112;2023-04-03T01:52:12;2.23;;;2.13;;
6007;SDS011;3032;49.484;11.112;2023-04-03T01:54:38;5.20;;;2.47;;
6007;SDS011;3032;49.484;11.112;2023-04-03T01:57:03;2.20;;;2.10;;
6007;SDS011;3032;49.484;11.112;2023-04-03T01:59:29;2.50;;;2.30;;
6007;SDS011;3032;49.484;11.112;2023-04-03T02:01:55;2.20;;;2.10;;
6007;SDS011;3032;49.484;11.112;2023-04-03T02:04:20;2.40;;;1.87;;
6007;SDS011;3032;49.484;11.112;2023-04-03T02:06:46;2.80;;;2.57;;
6007;SDS011;3032;49.484;11.112;2023-04-03T02:09:11;3.63;;;2.37;;
6007;SDS011;3032;49.484;11.112;2023-04-03T02:11:37;3.00;;;2.70;;
6007;SDS011;3032;49.484;11.112;2023-04-03T02:14:03;2.43;;;2.23;;
6007;SDS011;3032;49.484;11.112;2023-04-03T02:16:28;5.17;;;2.40;;
6007;SDS011;3032;49.484;11.112;2023-04-03T02:18:55;2.65;;;2.47;;
6007;SDS011;3032;49.484;11.112;2023-04-03T02:21:21;2.60;;;2.40;;
6007;SDS011;3032;49.484;11.112;2023-04-03T02:23:47;2.57;;;2.40;;
6007;SDS011;3032;49.484;11.112;2023-04-03T02:26:13;3.00;;;2.70;;
6007;SDS011;3032;49.484;11.112;2023-04-03T02:28:40;2.40;;;2.30;;
6007;SDS011;3032;49.484;11.112;2023-04-03T02:31:09;2.20;;;2.10;;
6007;SDS011;3032;49.484;11.112;2023-04-03T02:33:35;2.70;;;2.50;;
6007;SDS011;3032;49.484;11.112;2023-04-03T02:36:01;2.17;;;2.08;;
6007;SDS011;3032;49.484;11.112;2023-04-03T02:38:28;2.67;;;2.42;;
6007;SDS011;3032;49.484;11.112;2023-04-03T02:40:59;2.03;;;1.92;;
6007;SDS011;3032;49.484;11.112;2023-04-03T02:43:25;2.30;;;2.20;;
6007;SDS011;3032;49.484;11.112;2023-04-03T02:45:51;2.60;;;2.50;;
6007;SDS011;3032;49.484;11.112;2023-04-03T02:48:16;2.10;;;2.00;;
6007;SDS011;3032;49.484;11.112;2023-04-03T02:50:42;3.73;;;2.80;;
6007;SDS011;3032;49.484;11.112;2023-04-03T02:53:07;2.37;;;2.17;;
6007;SDS011;3032;49.484;11.112;2023-04-03T02:55:33;3.60;;;2.47;;
6007;SDS011;3032;49.484;11.112;2023-04-03T02:57:59;2.87;;;2.57;;
6007;SDS011;3032;49.484;11.112;2023-04-03T03:00:24;2.37;;;2.17;;
6007;SDS011;3032;49.484;11.112;2023-04-03T03:02:50;2.50;;;2.30;;
6007;SDS011;3032;49.484;11.112;2023-04-03T03:05:15;4.07;;;2.20;;
6007;SDS011;3032;49.484;11.112;2023-04-03T03:07:42;3.25;;;2.60;;
6007;SDS011;3032;49.484;11.112;2023-04-03T03:10:07;2.83;;;2.53;;
6007;SDS011;3032;49.484;11.112;2023-04-03T03:12:33;3.57;;;2.60;;
6007;SDS011;3032;49.484;11.112;2023-04-03T03:14:59;4.13;;;2.50;;
6007;SDS011;3032;49.484;11.112;2023-04-03T03:17:24;2.83;;;2.50;;
6007;SDS011;3032;49.484;11.112;2023-04-03T03:19:50;2.73;;;2.57;;
6007;SDS011;3032;49.484;11.112;2023-04-03T03:22:16;4.30;;;2.70;;
6007;SDS011;3032;49.484;11.112;2023-04-03T03:24:41;2.95;;;2.50;;
6007;SDS011;3032;49.484;11.112;2023-04-03T03:27:07;4.30;;;2.80;;
6007;SDS011;3032;49.484;11.112;2023-04-03T03:29:32;3.07;;;2.53;;
6007;SDS011;3032;49.484;11.112;2023-04-03T03:31:58;3.10;;;2.57;;
6007;SDS011;3032;49.484;11.112;2023-04-03T03:34:23;3.53;;;2.30;;
6007;SDS011;3032;49.484;11.112;2023-04-03T03:36:49;3.47;;;3.17;;
6007;SDS011;3032;49.484;11.112;2023-04-03T03:39:15;3.77;;;2.97;;
6007;SDS011;3032;49.484;11.112;2023-04-03T03:41:40;3.90;;;3.27;;
6007;SDS011;3032;49.484;11.112;2023-04-03T03:44:06;3.63;;;3.00;;
6007;SDS011;3032;49.484;11.112;2023-04-03T03:46:31;2.90;;;2.53;;
6007;SDS011;3032;49.484;11.112;2023-04-03T03:48:57;3.33;;;3.03;;
6007;SDS011;3032;49.484;11.112;2023-04-03T03:51:23;4.37;;;2.90;;
6007;SDS011;3032;49.484;11.112;2023-04-03T03:53:48;2.80;;;2.60;;
6007;SDS011;3032;49.484;11.112;2023-04-03T03:56:14;5.13;;;3.33;;
6007;SDS011;3032;49.484;11.112;2023-04-03T03:58:39;4.47;;;3.17;;
6007;SDS011;3032;49.484;11.112;2023-04-03T04:01:06;5.53;;;3.10;;
6007;SDS011;3032;49.484;11.112;2023-04-03T04:03:32;4.75;;;3.40;;
6007;SDS011;3032;49.484;11.112;2023-04-03T04:05:57;3.80;;;3.00;;
6007;SDS011;3032;49.484;11.112;2023-04-03T04:08:23;4.30;;;3.20;;
6007;SDS011;3032;49.484;11.112;2023-04-03T04:10:49;4.07;;;3.03;;
6007;SDS011;3032;49.484;11.112;2023-04-03T04:13:14;3.73;;;3.17;;
6007;SDS011;3032;49.484;11.112;2023-04-03T04:15:40;3.20;;;2.90;;
6007;SDS011;3032;49.484;11.112;2023-04-03T04:18:05;4.80;;;3.13;;
6007;SDS011;3032;49.484;11.112;2023-04-03T04:20:31;3.37;;;3.07;;
6007;SDS011;3032;49.484;11.112;2023-04-03T04:22:56;3.10;;;2.80;;
6007;SDS011;3032;49.484;11.112;2023-04-03T04:25:22;3.30;;;3.10;;
6007;SDS011;3032;49.484;11.112;2023-04-03T04:27:47;4.40;;;4.00;;
6007;SDS011;3032;49.484;11.112;2023-04-03T04:30:13;4.30;;;3.50;;
6007;SDS011;3032;49.484;11.112;2023-04-03T04:32:39;4.57;;;3.50;;
6007;SDS011;3032;49.484;11.112;2023-04-03T04:35:04;3.63;;;2.83;;
6007;SDS011;3032;49.484;11.112;2023-04-03T04:37:30;4.10;;;3.20;;
6007;SDS011;3032;49.484;11.112;2023-04-03T04:39:56;4.00;;;3.40;;
6007;SDS011;3032;49.484;11.112;2023-04-03T04:42:21;3.93;;;3.63;;
6007;SDS011;3032;49.484;11.112;2023-04-03T04:44:47;4.07;;;3.63;;
6007;SDS011;3032;49.484;11.112;2023-04-03T04:47:12;5.50;;;3.27;;
6007;SDS011;3032;49.484;11.112;2023-04-03T04:49:38;6.10;;;3.67;;
6007;SDS011;3032;49.484;11.112;2023-04-03T04:52:04;6.73;;;3.47;;
6007;SDS011;3032;49.484;11.112;2023-04-03T04:54:30;3.78;;;3.47;;
6007;SDS011;3032;49.484;11.112;2023-04-03T04:56:55;4.70;;;3.60;;
6007;SDS011;3032;49.484;11.112;2023-04-03T04:59:21;6.83;;;3.13;;
6007;SDS011;3032;49.484;11.112;2023-04-03T05:01:46;4.47;;;4.07;;
6007;SDS011;3032;49.484;11.112;2023-04-03T05:04:12;6.60;;;3.90;;
6007;SDS011;3032;49.484;11.112;2023-04-03T05:06:38;6.60;;;3.90;;
6007;SDS011;3032;49.484;11.112;2023-04-03T05:09:04;7.72;;;4.15;;
6007;SDS011;3032;49.484;11.112;2023-04-03T05:11:30;9.00;;;4.47;;
6007;SDS011;3032;49.484;11.112;2023-04-03T05:13:56;6.60;;;3.83;;
6007;SDS011;3032;49.484;11.112;2023-04-03T05:16:21;4.77;;;4.03;;
6007;SDS011;3032;49.484;11.112;2023-04-03T05:18:47;4.77;;;3.33;;
6007;SDS011;3032;49.484;11.112;2023-04-03T05:21:12;4.40;;;4.00;;
6007;SDS011;3032;49.484;11.112;2023-04-03T05:23:38;6.83;;;4.30;;
6007;SDS011;3032;49.484;11.112;2023-04-03T05:26:04;3.73;;;3.43;;
6007;SDS011;3032;49.484;11.112;2023-04-03T05:28:30;3.88;;;3.40;;
6007;SDS011;3032;49.484;11.112;2023-04-03T05:30:57;6.70;;;3.10;;
6007;SDS011;3032;49.484;11.112;2023-04-03T05:33:23;4.45;;;3.65;;
6007;SDS011;3032;49.484;11.112;2023-04-03T05:35:49;4.00;;;3.60;;
6007;SDS011;3032;49.484;11.112;2023-04-03T05:38:15;4.67;;;4.23;;
6007;SDS011;3032;49.484;11.112;2023-04-03T05:40:41;3.60;;;3.28;;
6007;SDS011;3032;49.484;11.112;2023-04-03T05:43:07;3.70;;;3.50;;
6007;SDS011;3032;49.484;11.112;2023-04-03T05:45:32;4.10;;;3.30;;
6007;SDS011;3032;49.484;11.112;2023-04-03T05:47:58;9.97;;;4.13;;
6007;SDS011;3032;49.484;11.112;2023-04-03T05:50:23;3.77;;;3.30;;
6007;SDS011;3032;49.484;11.112;2023-04-03T05:52:49;7.17;;;3.63;;
6007;SDS011;3032;49.484;11.112;2023-04-03T05:55:17;6.22;;;3.20;;
6007;SDS011;3032;49.484;11.112;2023-04-03T05:57:43;6.70;;;3.00;;
6007;SDS011;3032;49.484;11.112;2023-04-03T06:00:11;5.90;;;3.27;;
6007;SDS011;3032;49.484;11.112;2023-04-03T06:02:40;5.15;;;2.88;;
6007;SDS011;3032;49.484;11.112;2023-04-03T06:05:07;3.53;;;3.15;;
6007;SDS011;3032;49.484;11.112;2023-04-03T06:07:33;4.40;;;2.90;;
6007;SDS011;3032;49.484;11.112;2023-04-03T06:09:59;4.63;;;3.22;;
6007;SDS011;3032;49.484;11.112;2023-04-03T06:12:26;3.50;;;2.50;;
6007;SDS011;3032;49.484;11.112;2023-04-03T06:14:53;6.45;;;3.05;;
6007;SDS011;3032;49.484;11.112;2023-04-03T06:17:19;3.50;;;2.20;;
6007;SDS011;3032;49.484;11.112;2023-04-03T06:19:45;4.33;;;2.97;;
6007;SDS011;3032;49.484;11.112;2023-04-03T06:22:11;5.28;;;2.85;;
6007;SDS011;3032;49.484;11.112;2023-04-03T06:24:37;3.08;;;2.78;;
6007;SDS011;3032;49.484;11.112;2023-04-03T06:27:03;3.97;;;2.50;;
6007;SDS011;3032;49.484;11.112;2023-04-03T06:29:29;3.65;;;2.90;;
6007;SDS011;3032;49.484;11.112;2023-04-03T06:31:55;3.83;;;2.60;;
6007;SDS011;3032;49.484;11.112;2023-04-03T06:34:21;3.37;;;2.80;;
6007;SDS011;3032;49.484;11.112;2023-04-03T06:36:47;3.87;;;2.63;;
6007;SDS011;3032;49.484;11.112;2023-04-03T06:39:14;6.53;;;2.92;;
6007;SDS011;3032;49.484;11.112;2023-04-03T06:41:42;4.55;;;2.72;;
6007;SDS011;3032;49.484;11.112;2023-04-03T06:45:34;5.43;;;2.90;;
6007;SDS011;3032;49.484;11.112;2023-04-03T06:48:01;4.40;;;3.20;;
6007;SDS011;3032;49.484;11.112;2023-04-03T06:50:26;2.93;;;2.50;;
6007;SDS011;3032;49.484;11.112;2023-04-03T06:52:52;4.50;;;2.93;;
6007;SDS011;3032;49.484;11.112;2023-04-03T06:55:17;5.77;;;2.67;;
6007;SDS011;3032;49.484;11.112;2023-04-03T06:57:43;3.07;;;2.83;;
6007;SDS011;3032;49.484;11.112;2023-04-03T07:00:10;3.83;;;2.90;;
6007;SDS011;3032;49.484;11.112;2023-04-03T07:02:36;4.03;;;2.90;;
6007;SDS011;3032;49.484;11.112;2023-04-03T07:05:02;4.07;;;2.90;;
6007;SDS011;3032;49.484;11.112;2023-04-03T07:07:28;7.67;;;3.00;;
6007;SDS011;3032;49.484;11.112;2023-04-03T07:09:53;3.93;;;2.80;;
6007;SDS011;3032;49.484;11.112;2023-04-03T07:12:19;2.90;;;2.60;;
6007;SDS011;3032;49.484;11.112;2023-04-03T07:14:45;7.53;;;2.80;;
6007;SDS011;3032;49.484;11.112;2023-04-03T07:17:11;3.03;;;2.50;;
6007;SDS011;3032;49.484;11.112;2023-04-03T07:19:36;3.80;;;2.50;;
6007;SDS011;3032;49.484;11.112;2023-04-03T07:22:02;4.83;;;2.50;;
6007;SDS011;3032;49.484;11.112;2023-04-03T07:24:28;3.30;;;2.55;;
6007;SDS011;3032;49.484;11.112;2023-04-03T07:26:53;3.70;;;2.83;;
6007;SDS011;3032;49.484;11.112;2023-04-03T07:29:19;5.70;;;2.80;;
6007;SDS011;3032;49.484;11.112;2023-04-03T07:31:46;5.68;;;2.55;;
6007;SDS011;3032;49.484;11.112;2023-04-03T07:34:12;2.67;;;2.47;;
6007;SDS011;3032;49.484;11.112;2023-04-03T07:36:37;5.30;;;3.50;;
6007;SDS011;3032;49.484;11.112;2023-04-03T07:39:03;3.20;;;2.60;;
6007;SDS011;3032;49.484;11.112;2023-04-03T07:41:28;6.27;;;2.80;;
6007;SDS011;3032;49.484;11.112;2023-04-03T07:43:55;2.85;;;2.63;;
6007;SDS011;3032;49.484;11.112;2023-04-03T07:46:21;3.08;;;2.78;;
6007;SDS011;3032;49.484;11.112;2023-04-03T07:48:47;4.80;;;3.00;;
6007;SDS011;3032;49.484;11.112;2023-04-03T07:51:13;2.90;;;2.60;;
6007;SDS011;3032;49.484;11.112;2023-04-03T07:53:38;4.80;;;3.17;;
6007;SDS011;3032;49.484;11.112;2023-04-03T07:56:04;3.43;;;3.03;;
6007;SDS011;3032;49.484;11.112;2023-04-03T07:58:30;7.60;;;2.80;;
6007;SDS011;3032;49.484;11.112;2023-04-03T08:00:55;6.33;;;3.20;;
6007;SDS011;3032;49.484;11.112;2023-04-03T08:03:21;6.23;;;3.20;;
6007;SDS011;3032;49.484;11.112;2023-04-03T08:05:47;5.63;;;3.20;;
6007;SDS011;3032;49.484;11.112;2023-04-03T08:08:17;3.33;;;3.13;;
6007;SDS011;3032;49.484;11.112;2023-04-03T08:10:47;3.88;;;3.00;;
6007;SDS011;3032;49.484;11.112;2023-04-03T08:13:14;4.95;;;2.55;;
6007;SDS011;3032;49.484;11.112;2023-04-03T08:15:40;3.20;;;2.53;;
6007;SDS011;3032;49.484;11.112;2023-04-03T08:18:06;6.43;;;2.80;;
6007;SDS011;3032;49.484;11.112;2023-04-03T08:20:31;3.17;;;2.87;;
6007;SDS011;3032;49.484;11.112;2023-04-03T08:22:57;3.40;;;2.40;;
6007;SDS011;3032;49.484;11.112;2023-04-03T08:25:22;5.50;;;2.60;;
6007;SDS011;3032;49.484;11.112;2023-04-03T08:27:48;3.37;;;2.93;;
6007;SDS011;3032;49.484;11.112;2023-04-03T08:30:14;2.40;;;2.23;;
6007;SDS011;3032;49.484;11.112;2023-04-03T08:32:39;4.60;;;2.70;;
6007;SDS011;3032;49.484;11.112;2023-04-03T08:35:08;6.28;;;2.97;;
6007;SDS011;3032;49.484;11.112;2023-04-03T08:37:37;2.43;;;1.80;;
6007;SDS011;3032;49.484;11.112;2023-04-03T08:40:04;3.30;;;2.10;;
6007;SDS011;3032;49.484;11.112;2023-04-03T08:45:27;2.40;;;1.98;;
6007;SDS011;3032;49.484;11.112;2023-04-03T08:50:53;2.00;;;1.90;;
6007;SDS011;3032;49.484;11.112;2023-04-03T08:53:23;2.50;;;2.30;;
6007;SDS011;3032;49.484;11.112;2023-04-03T08:55:53;4.63;;;1.80;;
6007;SDS011;3032;49.484;11.112;2023-04-03T08:58:24;3.13;;;2.03;;
6007;SDS011;3032;49.484;11.112;2023-04-03T09:01:03;2.55;;;2.35;;
6007;SDS011;3032;49.484;11.112;2023-04-03T09:03:33;2.10;;;2.00;;
6007;SDS011;3032;49.484;11.112;2023-04-03T09:06:03;3.65;;;2.10;;
6007;SDS011;3032;49.484;11.112;2023-04-03T09:13:54;2.00;;;1.80;;
6007;SDS011;3032;49.484;11.112;2023-04-03T09:21:58;2.55;;;2.10;;
6007;SDS011;3032;49.484;11.112;2023-04-03T09:24:27;2.17;;;1.80;;
6007;SDS011;3032;49.484;11.112;2023-04-03T09:26:57;4.75;;;1.88;;
6007;SDS011;3032;49.484;11.112;2023-04-03T09:29:27;2.80;;;2.10;;
6007;SDS011;3032;49.484;11.112;2023-04-03T09:31:56;2.30;;;2.10;;
6007;SDS011;3032;49.484;11.112;2023-04-03T09:34:32;2.17;;;1.90;;
6007;SDS011;3032;49.484;11.112;2023-04-03T09:37:01;2.88;;;1.85;;
6007;SDS011;3032;49.484;11.112;2023-04-03T09:39:32;3.67;;;2.08;;
6007;SDS011;3032;49.484;11.112;2023-04-03T09:42:16;2.30;;;2.15;;
6007;SDS011;3032;49.484;11.112;2023-04-03T09:44:55;5.07;;;2.28;;
6007;SDS011;3032;49.484;11.112;2023-04-03T09:47:24;2.33;;;2.00;;
6007;SDS011;3032;49.484;11.112;2023-04-03T09:49:50;2.65;;;1.70;;
6007;SDS011;3032;49.484;11.112;2023-04-03T09:52:33;1.73;;;1.63;;
6007;SDS011;3032;49.484;11.112;2023-04-03T09:55:06;3.27;;;2.13;;
6007;SDS011;3032;49.484;11.112;2023-04-03T09:57:42;2.70;;;1.70;;
6007;SDS011;3032;49.484;11.112;2023-04-03T10:00:24;1.92;;;1.80;;
6007;SDS011;3032;49.484;11.112;2023-04-03T10:02:54;2.45;;;1.80;;
6007;SDS011;3032;49.484;11.112;2023-04-03T10:05:39;2.33;;;2.10;;
6007;SDS011;3032;49.484;11.112;2023-04-03T10:08:10;3.83;;;2.55;;
6007;SDS011;3032;49.484;11.112;2023-04-03T10:10:43;2.97;;;1.73;;
6007;SDS011;3032;49.484;11.112;2023-04-03T10:13:11;2.67;;;1.52;;
6007;SDS011;3032;49.484;11.112;2023-04-03T10:16:23;1.77;;;1.67;;
6007;SDS011;3032;49.484;11.112;2023-04-03T10:21:09;2.42;;;1.83;;
6007;SDS011;3032;49.484;11.112;2023-04-03T10:24:43;2.40;;;1.70;;
6007;SDS011;3032;49.484;11.112;2023-04-03T10:27:06;3.42;;;2.40;;
6007;SDS011;3032;49.484;11.112;2023-04-03T10:41:01;2.55;;;2.10;;
6007;SDS011;3032;49.484;11.112;2023-04-03T10:43:39;1.98;;;1.55;;
6007;SDS011;3032;49.484;11.112;2023-04-03T10:46:13;2.70;;;1.80;;
6007;SDS011;3032;49.484;11.112;2023-04-03T10:56:47;3.80;;;2.17;;
6007;SDS011;3032;49.484;11.112;2023-04-03T11:02:19;1.85;;;1.67;;
6007;SDS011;3032;49.484;11.112;2023-04-03T11:05:04;2.25;;;1.75;;
6007;SDS011;3032;49.484;11.112;2023-04-03T11:07:42;1.95;;;1.80;;
6007;SDS011;3032;49.484;11.112;2023-04-03T11:15:38;1.92;;;1.58;;
6007;SDS011;3032;49.484;11.112;2023-04-03T11:18:16;2.03;;;1.70;;
6007;SDS011;3032;49.484;11.112;2023-04-03T11:20:53;2.47;;;2.28;;
6007;SDS011;3032;49.484;11.112;2023-04-03T11:23:49;1.50;;;1.40;;
6007;SDS011;3032;49.484;11.112;2023-04-03T11:26:18;4.97;;;1.95;;
6007;SDS011;3032;49.484;11.112;2023-04-03T11:28:46;3.13;;;2.08;;
6007;SDS011;3032;49.484;11.112;2023-04-03T11:36:57;2.13;;;2.03;;
6007;SDS011;3032;49.484;11.112;2023-04-03T11:39:26;2.30;;;2.10;;
6007;SDS011;3032;49.484;11.112;2023-04-03T11:42:13;2.92;;;2.72;;
6007;SDS011;3032;49.484;11.112;2023-04-03T11:44:48;3.40;;;2.17;;
6007;SDS011;3032;49.484;11.112;2023-04-03T11:47:43;3.20;;;2.97;;
6007;SDS011;3032;49.484;11.112;2023-04-03T12:14:23;2.10;;;1.80;;
6007;SDS011;3032;49.484;11.112;2023-04-03T12:18:55;2.00;;;1.90;;
6007;SDS011;3032;49.484;11.112;2023-04-03T12:42:54;2.00;;;1.90;;
6007;SDS011;3032;49.484;11.112;2023-04-03T12:45:23;3.25;;;1.30;;
6007;SDS011;3032;49.484;11.112;2023-04-03T12:47:52;2.15;;;1.60;;
6007;SDS011;3032;49.484;11.112;2023-04-03T12:52:51;1.85;;;1.75;;
6007;SDS011;3032;49.484;11.112;2023-04-03T12:55:28;3.75;;;1.70;;
6007;SDS011;3032;49.484;11.112;2023-04-03T12:57:54;2.10;;;2.00;;
6007;SDS011;3032;49.484;11.112;2023-04-03T13:02:47;4.15;;;2.05;;
6007;SDS011;3032;49.484;11.112;2023-04-03T13:05:15;2.17;;;1.80;;
6007;SDS011;3032;49.484;11.112;2023-04-03T13:07:43;4.03;;;2.03;;
6007;SDS011;3032;49.484;11.112;2023-04-03T13:10:14;2.13;;;1.98;;
6007;SDS011;3032;49.484;11.112;2023-04-03T13:12:49;2.53;;;1.90;;
6007;SDS011;3032;49.484;11.112;2023-04-03T13:15:20;2.42;;;1.88;;
6007;SDS011;3032;49.484;11.112;2023-04-03T13:17:47;1.90;;;1.80;;
6007;SDS011;3032;49.484;11.112;2023-04-03T13:20:25;2.00;;;1.90;;
6007;SDS011;3032;49.484;11.112;2023-04-03T13:22:55;2.20;;;2.10;;
6007;SDS011;3032;49.484;11.112;2023-04-03T13:25:28;2.30;;;2.20;;
6007;SDS011;3032;49.484;11.112;2023-04-03T13:27:56;3.30;;;2.10;;
6007;SDS011;3032;49.484;11.112;2023-04-03T13:30:27;4.15;;;2.13;;
6007;SDS011;3032;49.484;11.112;2023-04-03T13:32:56;3.55;;;1.85;;
6007;SDS011;3032;49.484;11.112;2023-04-03T13:35:28;2.83;;;2.25;;
6007;SDS011;3032;49.484;11.112;2023-04-03T13:41:03;2.55;;;2.35;;
6007;SDS011;3032;49.484;11.112;2023-04-03T13:43:46;2.10;;;2.00;;
6007;SDS011;3032;49.484;11.112;2023-04-03T13:53:48;3.03;;;2.20;;
6007;SDS011;3032;49.484;11.112;2023-04-03T13:56:30;2.08;;;1.92;;
6007;SDS011;3032;49.484;11.112;2023-04-03T14:04:31;2.42;;;2.22;;
6007;SDS011;3032;49.484;11.112;2023-04-03T14:07:09;2.55;;;2.38;;
6007;SDS011;3032;49.484;11.112;2023-04-03T14:09:35;2.20;;;2.10;;
6007;SDS011;3032;49.484;11.112;2023-04-03T14:12:06;2.67;;;2.47;;
6007;SDS011;3032;49.484;11.112;2023-04-03T14:14:41;2.20;;;1.80;;
6007;SDS011;3032;49.484;11.112;2023-04-03T14:17:13;3.75;;;2.55;;
6007;SDS011;3032;49.484;11.112;2023-04-03T14:19:42;2.88;;;2.20;;
6007;SDS011;3032;49.484;11.112;2023-04-03T14:22:19;2.15;;;1.90;;
6007;SDS011;3032;49.484;11.112;2023-04-03T14:24:48;1.80;;;1.70;;
6007;SDS011;3032;49.484;11.112;2023-04-03T14:27:20;2.47;;;2.28;;
6007;SDS011;3032;49.484;11.112;2023-04-03T14:29:48;2.28;;;2.17;;
6007;SDS011;3032;49.484;11.112;2023-04-03T14:32:17;4.10;;;2.35;;
6007;SDS011;3032;49.484;11.112;2023-04-03T14:34:44;5.43;;;2.47;;
6007;SDS011;3032;49.484;11.112;2023-04-03T14:37:11;4.25;;;2.63;;
6007;SDS011;3032;49.484;11.112;2023-04-03T14:39:38;1.90;;;1.80;;
6007;SDS011;3032;49.484;11.112;2023-04-03T14:42:03;2.20;;;1.60;;
6007;SDS011;3032;49.484;11.112;2023-04-03T14:44:29;2.13;;;1.93;;
6007;SDS011;3032;49.484;11.112;2023-04-03T14:46:55;1.85;;;1.70;;
6007;SDS011;3032;49.484;11.112;2023-04-03T14:49:22;2.35;;;1.80;;
6007;SDS011;3032;49.484;11.112;2023-04-03T14:51:50;1.83;;;1.73;;
6007;SDS011;3032;49.484;11.112;2023-04-03T14:54:17;1.73;;;1.63;;
6007;SDS011;3032;49.484;11.112;2023-04-03T14:56:46;2.10;;;1.90;;
6007;SDS011;3032;49.484;11.112;2023-04-03T14:59:12;4.03;;;1.70;;
6007;SDS011;3032;49.484;11.112;2023-04-03T15:01:39;4.78;;;1.95;;
6007;SDS011;3032;49.484;11.112;2023-04-03T15:04:10;1.60;;;1.50;;
6007;SDS011;3032;49.484;11.112;2023-04-03T15:06:37;2.05;;;1.55;;
6007;SDS011;3032;49.484;11.112;2023-04-03T15:09:03;1.80;;;1.60;;
6007;SDS011;3032;49.484;11.112;2023-04-03T15:11:28;3.00;;;2.20;;
6007;SDS011;3032;49.484;11.112;2023-04-03T15:13:54;1.80;;;1.70;;
6007;SDS011;3032;49.484;11.112;2023-04-03T15:16:20;1.97;;;1.77;;
6007;SDS011;3032;49.484;11.112;2023-04-03T15:18:53;5.45;;;1.70;;
6007;SDS011;3032;49.484;11.112;2023-04-03T15:21:19;5.60;;;1.60;;
6007;SDS011;3032;49.484;11.112;2023-04-03T15:23:45;3.33;;;1.90;;
6007;SDS011;3032;49.484;11.112;2023-04-03T15:26:10;2.20;;;1.57;;
6007;SDS011;3032;49.484;11.112;2023-04-03T15:28:37;1.70;;;1.60;;
6007;SDS011;3032;49.484;11.112;2023-04-03T15:31:05;3.05;;;2.30;;
6007;SDS011;3032;49.484;11.112;2023-04-03T15:33:34;1.52;;;1.42;;
6007;SDS011;3032;49.484;11.112;2023-04-03T15:36:00;3.45;;;1.55;;
6007;SDS011;3032;49.484;11.112;2023-04-03T15:38:26;2.90;;;1.80;;
6007;SDS011;3032;49.484;11.112;2023-04-03T15:40:53;2.63;;;1.90;;
6007;SDS011;3032;49.484;11.112;2023-04-03T15:43:19;1.50;;;1.40;;
6007;SDS011;3032;49.484;11.112;2023-04-03T15:45:44;4.43;;;1.50;;
6007;SDS011;3032;49.484;11.112;2023-04-03T15:48:10;2.10;;;1.90;;
6007;SDS011;3032;49.484;11.112;2023-04-03T15:50:37;2.00;;;1.90;;
6007;SDS011;3032;49.484;11.112;2023-04-03T15:53:03;1.70;;;1.60;;
6007;SDS011;3032;49.484;11.112;2023-04-03T15:55:30;2.90;;;1.83;;
6007;SDS011;3032;49.484;11.112;2023-04-03T15:57:57;1.80;;;1.60;;
6007;SDS011;3032;49.484;11.112;2023-04-03T16:00:23;1.60;;;1.40;;
6007;SDS011;3032;49.484;11.112;2023-04-03T16:02:51;2.22;;;2.08;;
6007;SDS011;3032;49.484;11.112;2023-04-03T16:05:20;1.88;;;1.73;;
6007;SDS011;3032;49.484;11.112;2023-04-03T16:07:46;2.55;;;2.10;;
6007;SDS011;3032;49.484;11.112;2023-04-03T16:10:12;2.00;;;1.87;;
6007;SDS011;3032;49.484;11.112;2023-04-03T16:12:39;1.60;;;1.50;;
6007;SDS011;3032;49.484;11.112;2023-04-03T16:15:05;1.57;;;1.40;;
6007;SDS011;3032;49.484;11.112;2023-04-03T16:17:33;2.80;;;1.58;;
6007;SDS011;3032;49.484;11.112;2023-04-03T16:20:00;1.80;;;1.70;;
6007;SDS011;3032;49.484;11.112;2023-04-03T16:22:26;1.80;;;1.70;;
6007;SDS011;3032;49.484;11.112;2023-04-03T16:24:53;1.95;;;1.65;;
6007;SDS011;3032;49.484;11.112;2023-04-03T16:27:19;3.87;;;1.47;;
6007;SDS011;3032;49.484;11.112;2023-04-03T16:29:45;1.90;;;1.80;;
6007;SDS011;3032;49.484;11.112;2023-04-03T16:32:10;3.13;;;1.70;;
6007;SDS011;3032;49.484;11.112;2023-04-03T16:34:37;2.10;;;1.70;;
6007;SDS011;3032;49.484;11.112;2023-04-03T16:37:05;2.10;;;1.83;;
6007;SDS011;3032;49.484;11.112;2023-04-03T16:39:33;1.60;;;1.50;;
6007;SDS011;3032;49.484;11.112;2023-04-03T16:41:59;1.70;;;1.60;;
6007;SDS011;3032;49.484;11.112;2023-04-03T16:44:25;1.67;;;1.57;;
6007;SDS011;3032;49.484;11.112;2023-04-03T16:46:51;8.43;;;1.70;;
6007;SDS011;3032;49.484;11.112;2023-04-03T16:49:16;2.13;;;1.70;;
6007;SDS011;3032;49.484;11.112;2023-04-03T16:51:42;1.37;;;1.23;;
6007;SDS011;3032;49.484;11.112;2023-04-03T16:54:08;2.30;;;1.63;;
6007;SDS011;3032;49.484;11.112;2023-04-03T16:56:35;2.22;;;1.45;;
6007;SDS011;3032;49.484;11.112;2023-04-03T16:59:01;2.40;;;1.83;;
6007;SDS011;3032;49.484;11.112;2023-04-03T17:01:27;5.50;;;1.80;;
6007;SDS011;3032;49.484;11.112;2023-04-03T17:03:52;3.43;;;1.50;;
6007;SDS011;3032;49.484;11.112;2023-04-03T17:06:19;3.00;;;1.47;;
6007;SDS011;3032;49.484;11.112;2023-04-03T17:08:47;4.00;;;1.50;;
6007;SDS011;3032;49.484;11.112;2023-04-03T17:11:13;3.22;;;1.60;;
6007;SDS011;3032;49.484;11.112;2023-04-03T17:13:39;1.57;;;1.47;;